createdAt,value
2019-03-21T00:02:26.013Z,2.30
2019-03-21T00:04:52.492Z,2.33
2019-03-21T00:07:18.500Z,2.73
2019-03-21T00:10:08.333Z,3.00
2019-03-21T00:12:34.344Z,2.50
2019-03-21T00:15:16.393Z,2.40
2019-03-21T00:17:44.929Z,2.50
2019-03-21T00:20:13.251Z,2.60
2019-03-21T00:22:39.516Z,2.73
2019-03-21T00:25:09.138Z,2.60
2019-03-21T00:27:35.163Z,2.37
2019-03-21T00:30:01.179Z,1.63
2019-03-21T00:32:27.493Z,2.00
2019-03-21T00:34:53.516Z,2.10
2019-03-21T00:37:19.536Z,2.80
2019-03-21T00:39:45.532Z,2.27
2019-03-21T00:42:11.792Z,2.40
2019-03-21T00:44:37.796Z,2.97
2019-03-21T00:47:03.831Z,4.53
2019-03-21T00:49:29.834Z,3.07
2019-03-21T00:51:56.105Z,3.33
2019-03-21T00:54:22.093Z,3.83
2019-03-21T00:56:48.109Z,3.63
2019-03-21T00:59:14.119Z,3.30
2019-03-21T01:01:40.136Z,2.60
2019-03-21T01:04:06.144Z,2.47
2019-03-21T01:06:32.449Z,2.70
2019-03-21T01:08:58.474Z,3.27
2019-03-21T01:11:24.487Z,2.43
2019-03-21T01:13:50.830Z,2.70
2019-03-21T01:16:17.166Z,2.83
2019-03-21T01:18:44.994Z,2.07
2019-03-21T01:21:11.225Z,2.20
2019-03-21T01:23:37.242Z,1.70
2019-03-21T01:26:07.069Z,1.97
2019-03-21T01:28:33.434Z,2.67
2019-03-21T01:30:59.754Z,2.20
2019-03-21T01:33:25.780Z,2.33
2019-03-21T01:35:51.788Z,2.73
2019-03-21T01:38:17.808Z,2.17
2019-03-21T01:40:50.595Z,2.00
2019-03-21T01:43:17.519Z,2.33
2019-03-21T01:45:43.521Z,1.80
2019-03-21T01:48:09.852Z,2.37
2019-03-21T01:50:38.971Z,2.50
2019-03-21T01:53:05.077Z,2.23
2019-03-21T01:55:31.101Z,2.30
2019-03-21T01:57:57.177Z,2.10
2019-03-21T02:00:44.985Z,2.33
2019-03-21T02:03:11.271Z,2.47
2019-03-21T02:05:37.591Z,2.40
2019-03-21T02:08:03.927Z,2.40
2019-03-21T02:10:30.245Z,2.30
2019-03-21T02:12:56.264Z,2.63
2019-03-21T02:15:22.285Z,2.60
2019-03-21T02:17:49.093Z,2.23
2019-03-21T02:20:16.910Z,2.97
2019-03-21T02:22:43.239Z,2.20
2019-03-21T02:25:30.996Z,3.13
2019-03-21T02:27:57.601Z,2.70
2019-03-21T02:30:36.478Z,2.50
2019-03-21T02:33:23.509Z,2.23
2019-03-21T02:35:49.556Z,1.80
2019-03-21T02:38:15.562Z,2.57
2019-03-21T02:40:42.964Z,3.10
2019-03-21T02:43:09.305Z,2.57
2019-03-21T02:45:35.320Z,2.27
2019-03-21T02:48:01.339Z,2.40
2019-03-21T02:50:38.838Z,2.77
2019-03-21T02:53:06.091Z,2.43
2019-03-21T02:55:32.110Z,2.87
2019-03-21T02:57:58.135Z,3.20
2019-03-21T03:00:30.619Z,2.67
2019-03-21T03:02:58.159Z,3.27
2019-03-21T03:05:29.502Z,3.40
2019-03-21T03:07:55.560Z,2.57
2019-03-21T03:10:33.790Z,2.73
2019-03-21T03:13:00.014Z,2.87
2019-03-21T03:15:28.831Z,2.40
2019-03-21T03:17:54.851Z,2.20
2019-03-21T03:20:21.138Z,2.80
2019-03-21T03:22:47.189Z,2.27
2019-03-21T03:25:15.179Z,2.30
2019-03-21T03:27:42.514Z,2.43
2019-03-21T03:30:14.774Z,2.50
2019-03-21T03:32:40.789Z,2.43
2019-03-21T03:35:09.328Z,2.77
2019-03-21T03:37:35.364Z,3.10
2019-03-21T03:40:02.213Z,2.60
2019-03-21T03:42:28.356Z,2.87
2019-03-21T03:44:54.497Z,2.47
2019-03-21T03:47:20.915Z,2.40
2019-03-21T03:49:46.943Z,2.10
2019-03-21T03:52:12.962Z,2.97
2019-03-21T03:54:38.986Z,2.60
2019-03-21T03:57:05.032Z,2.93
2019-03-21T03:59:31.350Z,2.33
2019-03-21T04:01:57.462Z,2.20
2019-03-21T04:04:23.499Z,2.70
2019-03-21T04:06:49.611Z,1.93
2019-03-21T04:09:15.937Z,2.07
2019-03-21T04:11:42.242Z,1.87
2019-03-21T04:14:08.740Z,2.13
2019-03-21T04:16:34.741Z,2.03
2019-03-21T04:19:00.766Z,2.27
2019-03-21T04:21:27.110Z,2.40
2019-03-21T04:23:53.435Z,2.53
2019-03-21T04:26:26.042Z,2.40
2019-03-21T04:28:52.160Z,2.07
2019-03-21T04:31:18.196Z,2.70
2019-03-21T04:33:45.606Z,2.67
2019-03-21T04:36:11.965Z,2.40
2019-03-21T04:38:37.962Z,2.80
2019-03-21T04:41:04.425Z,2.73
2019-03-21T04:43:30.422Z,2.77
2019-03-21T04:46:03.326Z,3.20
2019-03-21T04:48:24.378Z,2.40
2019-03-21T04:50:50.659Z,2.37
2019-03-21T04:53:16.666Z,2.30
2019-03-21T04:55:42.690Z,2.67
2019-03-21T04:58:08.703Z,2.00
2019-03-21T05:00:44.378Z,2.10
2019-03-21T05:03:12.882Z,2.90
2019-03-21T05:05:38.911Z,2.47
2019-03-21T05:08:05.038Z,1.90
2019-03-21T05:10:31.059Z,2.70
2019-03-21T05:12:57.417Z,2.53
2019-03-21T05:15:26.643Z,2.40
2019-03-21T05:17:55.980Z,2.27
2019-03-21T05:20:25.216Z,2.50
2019-03-21T05:22:51.219Z,2.53
2019-03-21T05:25:17.237Z,2.53
2019-03-21T05:27:43.284Z,2.33
2019-03-21T05:30:12.695Z,2.23
2019-03-21T05:32:38.763Z,2.83
2019-03-21T05:35:07.591Z,2.17
2019-03-21T05:37:33.634Z,2.50
2019-03-21T05:39:59.666Z,2.40
2019-03-21T05:42:25.784Z,3.77
2019-03-21T05:44:51.829Z,2.20
2019-03-21T05:47:18.100Z,2.30
2019-03-21T05:49:44.124Z,2.23
2019-03-21T05:52:10.466Z,2.10
2019-03-21T05:54:36.488Z,2.10
2019-03-21T05:57:02.526Z,2.23
2019-03-21T05:59:28.836Z,2.33
2019-03-21T06:01:54.839Z,2.93
2019-03-21T06:04:21.202Z,2.67
2019-03-21T06:06:54.280Z,2.17
2019-03-21T06:09:21.232Z,1.80
2019-03-21T06:11:54.318Z,1.60
2019-03-21T06:14:20.356Z,2.20
2019-03-21T06:16:46.367Z,2.00
2019-03-21T06:19:16.219Z,2.30
2019-03-21T06:21:51.646Z,2.07
2019-03-21T06:24:39.145Z,2.60
2019-03-21T06:27:31.303Z,2.43
2019-03-21T06:29:57.771Z,2.97
2019-03-21T06:32:25.582Z,2.80
2019-03-21T06:34:51.603Z,2.70
2019-03-21T06:37:17.635Z,2.60
2019-03-21T06:39:43.966Z,3.50
2019-03-21T06:42:09.996Z,3.43
2019-03-21T06:44:36.031Z,3.67
2019-03-21T06:47:02.065Z,3.43
2019-03-21T06:49:28.099Z,4.10
2019-03-21T06:51:54.120Z,3.90
2019-03-21T06:54:20.443Z,3.77
2019-03-21T06:56:46.758Z,3.97
2019-03-21T06:59:12.787Z,3.67
2019-03-21T07:01:39.114Z,3.70
2019-03-21T07:04:07.291Z,3.20
2019-03-21T07:06:33.066Z,3.53
2019-03-21T07:08:59.342Z,4.00
2019-03-21T07:11:25.386Z,4.37
2019-03-21T07:13:51.406Z,6.08
2019-03-21T07:16:17.445Z,4.87
2019-03-21T07:18:43.743Z,4.77
2019-03-21T07:21:10.078Z,4.17
2019-03-21T07:23:36.090Z,4.55
2019-03-21T07:26:02.118Z,5.33
2019-03-21T07:28:28.133Z,5.47
2019-03-21T07:30:54.488Z,4.20
2019-03-21T07:33:20.491Z,5.05
2019-03-21T07:35:46.522Z,5.25
2019-03-21T07:38:12.551Z,5.85
2019-03-21T07:40:38.555Z,4.70
2019-03-21T07:43:04.589Z,4.50
2019-03-21T07:45:30.599Z,5.00
2019-03-21T07:47:56.639Z,5.33
2019-03-21T07:50:22.651Z,5.12
2019-03-21T07:52:48.698Z,7.25
2019-03-21T07:55:14.723Z,6.30
2019-03-21T07:57:40.742Z,6.10
2019-03-21T08:00:15.063Z,5.72
2019-03-21T08:02:41.086Z,6.08
2019-03-21T08:05:08.866Z,5.55
2019-03-21T08:07:35.078Z,5.78
2019-03-21T08:10:01.118Z,5.92
2019-03-21T08:12:27.166Z,5.70
2019-03-21T08:14:53.202Z,5.65
2019-03-21T08:17:19.224Z,5.50
2019-03-21T08:19:45.510Z,6.12
2019-03-21T08:22:11.533Z,5.60
2019-03-21T08:24:37.579Z,5.53
2019-03-21T08:27:03.604Z,5.05
2019-03-21T08:29:29.635Z,4.92
2019-03-21T08:31:55.652Z,3.83
2019-03-21T08:34:21.690Z,4.92
2019-03-21T08:36:47.710Z,4.10
2019-03-21T08:39:13.764Z,4.42
2019-03-21T08:41:40.035Z,4.42
2019-03-21T08:44:06.066Z,5.03
2019-03-21T08:46:32.402Z,5.25
2019-03-21T08:48:58.711Z,5.00
2019-03-21T08:51:24.744Z,6.00
2019-03-21T08:53:50.798Z,6.27
2019-03-21T08:56:17.110Z,5.43
2019-03-21T08:58:43.128Z,5.10
2019-03-21T09:01:09.452Z,5.23
2019-03-21T09:03:35.468Z,6.00
2019-03-21T09:06:01.490Z,5.60
2019-03-21T09:08:27.495Z,7.57
2019-03-21T09:10:53.851Z,7.17
2019-03-21T09:13:19.882Z,6.43
2019-03-21T09:15:45.907Z,6.20
2019-03-21T09:18:11.928Z,3.90
2019-03-21T09:20:37.951Z,5.20
2019-03-21T09:23:04.388Z,4.97
2019-03-21T09:25:30.419Z,5.30
2019-03-21T09:28:02.506Z,4.80
2019-03-21T09:30:24.360Z,4.77
2019-03-21T09:32:50.380Z,4.30
2019-03-21T09:35:16.691Z,5.00
2019-03-21T09:37:42.802Z,4.50
2019-03-21T09:40:10.324Z,5.40
2019-03-21T09:42:36.343Z,4.37
2019-03-21T09:45:06.743Z,4.57
2019-03-21T09:47:32.794Z,4.07
2019-03-21T09:49:59.407Z,4.37
2019-03-21T09:52:25.611Z,4.90
2019-03-21T09:54:51.919Z,4.40
2019-03-21T09:57:17.945Z,4.60
2019-03-21T09:59:43.979Z,3.93
2019-03-21T10:02:10.019Z,4.40
2019-03-21T10:04:36.442Z,4.10
2019-03-21T10:07:02.579Z,4.23
2019-03-21T10:09:28.615Z,4.00
2019-03-21T10:11:54.924Z,4.10
2019-03-21T10:14:20.970Z,3.53
2019-03-21T10:16:47.025Z,4.73
2019-03-21T10:19:13.056Z,3.93
2019-03-21T10:21:43.634Z,3.80
2019-03-21T10:24:07.227Z,3.63
2019-03-21T10:26:33.266Z,3.63
2019-03-21T10:28:59.284Z,3.90
2019-03-21T10:31:25.324Z,4.17
2019-03-21T10:33:51.414Z,3.80
2019-03-21T10:36:17.435Z,3.70
2019-03-21T10:38:43.733Z,4.30
2019-03-21T10:41:09.743Z,2.90
2019-03-21T10:43:36.086Z,3.07
2019-03-21T10:46:02.113Z,3.17
2019-03-21T10:48:28.370Z,4.00
2019-03-21T10:50:54.396Z,4.00
2019-03-21T10:53:20.411Z,3.83
2019-03-21T10:55:46.722Z,4.03
2019-03-21T10:58:12.762Z,3.17
2019-03-21T11:00:38.771Z,3.57
2019-03-21T11:03:04.990Z,3.87
2019-03-21T11:05:31.004Z,3.97
2019-03-21T11:07:57.018Z,3.20
2019-03-21T11:10:23.287Z,3.53
2019-03-21T11:12:49.527Z,4.07
2019-03-21T11:15:15.770Z,3.27
2019-03-21T11:17:41.967Z,3.40
2019-03-21T11:20:08.180Z,3.20
2019-03-21T11:22:34.201Z,3.53
2019-03-21T11:25:00.347Z,3.50
2019-03-21T11:27:26.802Z,3.27
2019-03-21T11:29:52.823Z,3.13
2019-03-21T11:32:18.863Z,2.97
2019-03-21T11:34:45.172Z,3.07
2019-03-21T11:37:11.200Z,3.40
2019-03-21T11:39:37.227Z,3.13
2019-03-21T11:42:03.238Z,2.77
2019-03-21T11:44:29.256Z,3.27
2019-03-21T11:46:55.263Z,3.63
2019-03-21T11:49:21.618Z,3.30
2019-03-21T11:51:47.639Z,3.07
2019-03-21T11:54:13.671Z,3.47
2019-03-21T11:56:40.007Z,3.10
2019-03-21T11:59:06.332Z,3.20
2019-03-21T12:01:32.351Z,2.50
2019-03-21T12:03:58.699Z,3.20
2019-03-21T12:06:24.712Z,2.83
2019-03-21T12:08:50.730Z,2.90
2019-03-21T12:11:16.754Z,2.47
2019-03-21T12:13:42.788Z,2.90
2019-03-21T12:16:08.807Z,2.60
2019-03-21T12:18:35.136Z,2.47
2019-03-21T12:21:01.182Z,2.50
2019-03-21T12:23:27.206Z,1.93
2019-03-21T12:25:53.518Z,2.00
2019-03-21T12:28:19.535Z,2.83
2019-03-21T12:30:45.574Z,2.57
2019-03-21T12:33:11.891Z,3.10
2019-03-21T12:35:38.231Z,2.83
2019-03-21T12:38:04.547Z,2.87
2019-03-21T12:40:30.578Z,3.50
2019-03-21T12:42:56.623Z,3.13
2019-03-21T12:45:23.035Z,3.40
2019-03-21T12:47:49.143Z,2.87
2019-03-21T12:50:15.411Z,3.50
2019-03-21T12:52:41.804Z,3.00
2019-03-21T12:55:07.972Z,2.93
2019-03-21T12:57:34.011Z,2.63
2019-03-21T13:00:00.022Z,3.07
2019-03-21T13:02:32.295Z,3.50
2019-03-21T13:04:54.218Z,2.97
2019-03-21T13:07:20.734Z,3.37
2019-03-21T13:09:47.381Z,3.27
2019-03-21T13:12:14.985Z,3.43
2019-03-21T13:14:41.271Z,2.90
2019-03-21T13:17:07.283Z,3.20
2019-03-21T13:19:33.631Z,3.17
2019-03-21T13:21:59.686Z,3.63
2019-03-21T13:24:25.711Z,3.70
2019-03-21T13:26:52.010Z,3.17
2019-03-21T13:29:18.055Z,3.73
2019-03-21T13:31:44.084Z,3.20
2019-03-21T13:34:10.090Z,3.10
2019-03-21T13:36:36.114Z,2.93
2019-03-21T13:39:04.948Z,3.10
2019-03-21T13:41:35.252Z,3.03
2019-03-21T13:44:01.382Z,2.93
2019-03-21T13:46:27.690Z,3.83
2019-03-21T13:48:54.647Z,3.13
2019-03-21T13:51:21.206Z,3.17
2019-03-21T13:53:47.210Z,3.40
2019-03-21T13:56:13.245Z,2.30
2019-03-21T13:58:39.583Z,2.93
2019-03-21T14:01:05.677Z,3.20
2019-03-21T14:03:32.251Z,3.10
2019-03-21T14:05:58.295Z,2.90
2019-03-21T14:08:24.684Z,2.97
2019-03-21T14:10:50.770Z,2.67
2019-03-21T14:13:16.771Z,3.07
2019-03-21T14:15:42.854Z,2.67
2019-03-21T14:18:08.890Z,2.73
2019-03-21T14:20:35.224Z,3.20
2019-03-21T14:23:01.247Z,3.07
2019-03-21T14:25:27.582Z,3.30
2019-03-21T14:27:53.629Z,3.37
2019-03-21T14:30:19.924Z,3.23
2019-03-21T14:32:46.270Z,3.03
2019-03-21T14:35:12.929Z,2.87
2019-03-21T14:37:38.973Z,3.23
2019-03-21T14:40:07.718Z,3.43
2019-03-21T14:42:33.788Z,2.97
2019-03-21T14:44:59.985Z,3.03
2019-03-21T14:47:35.814Z,3.10
2019-03-21T14:49:54.049Z,3.43
2019-03-21T14:52:20.112Z,2.70
2019-03-21T14:54:46.118Z,3.50
2019-03-21T14:57:12.139Z,2.90
2019-03-21T14:59:38.155Z,2.90
2019-03-21T15:02:04.178Z,2.70
2019-03-21T15:04:30.527Z,2.40
2019-03-21T15:06:56.543Z,2.63
2019-03-21T15:09:22.675Z,2.40
2019-03-21T15:11:49.047Z,2.40
2019-03-21T15:14:15.340Z,2.43
2019-03-21T15:16:41.648Z,2.37
2019-03-21T15:19:07.670Z,2.40
2019-03-21T15:21:34.005Z,2.67
2019-03-21T15:24:00.089Z,1.83
2019-03-21T15:26:26.263Z,2.53
2019-03-21T15:28:52.606Z,2.03
2019-03-21T15:31:18.633Z,2.47
2019-03-21T15:33:44.970Z,2.13
2019-03-21T15:36:10.986Z,2.40
2019-03-21T15:38:37.036Z,2.77
2019-03-21T15:41:03.078Z,2.60
2019-03-21T15:43:29.128Z,2.80
2019-03-21T15:45:55.146Z,2.70
2019-03-21T15:48:21.236Z,3.10
2019-03-21T15:50:47.308Z,2.83
2019-03-21T15:53:13.327Z,3.23
2019-03-21T15:55:39.348Z,3.20
2019-03-21T15:58:05.471Z,3.63
2019-03-21T16:00:41.243Z,3.13
2019-03-21T16:03:08.612Z,3.23
2019-03-21T16:05:35.470Z,3.73
2019-03-21T16:08:01.600Z,3.57
2019-03-21T16:10:27.717Z,3.97
2019-03-21T16:12:53.734Z,3.80
2019-03-21T16:15:19.746Z,3.70
2019-03-21T16:17:46.092Z,3.83
2019-03-21T16:20:12.223Z,3.53
2019-03-21T16:22:38.263Z,3.40
2019-03-21T16:25:07.903Z,3.83
2019-03-21T16:27:35.527Z,3.83
2019-03-21T16:30:06.491Z,3.10
2019-03-21T16:32:32.690Z,3.10
2019-03-21T16:34:58.986Z,3.40
2019-03-21T16:37:25.007Z,3.07
2019-03-21T16:39:51.051Z,3.57
2019-03-21T16:42:17.063Z,3.27
2019-03-21T16:44:43.434Z,2.83
2019-03-21T16:47:09.667Z,2.77
2019-03-21T16:49:35.715Z,3.50
2019-03-21T16:52:01.719Z,3.17
2019-03-21T16:54:30.238Z,2.53
2019-03-21T16:56:55.976Z,3.10
2019-03-21T16:59:22.005Z,2.63
2019-03-21T17:01:48.326Z,2.70
2019-03-21T17:04:14.361Z,2.43
2019-03-21T17:06:40.371Z,2.80
2019-03-21T17:09:07.438Z,2.50
2019-03-21T17:11:33.450Z,3.03
2019-03-21T17:13:59.647Z,3.00
2019-03-21T17:16:25.911Z,2.77
2019-03-21T17:18:51.930Z,2.93
2019-03-21T17:21:18.286Z,2.90
2019-03-21T17:23:44.519Z,3.10
2019-03-21T17:26:10.567Z,3.23
2019-03-21T17:28:36.854Z,2.60
2019-03-21T17:31:02.923Z,3.47
2019-03-21T17:33:29.031Z,2.53
2019-03-21T17:35:55.259Z,3.00
2019-03-21T17:38:21.559Z,3.50
2019-03-21T17:40:47.591Z,2.50
2019-03-21T17:43:14.023Z,2.53
2019-03-21T17:45:40.055Z,3.00
2019-03-21T17:48:06.174Z,2.27
2019-03-21T17:50:32.198Z,1.90
2019-03-21T17:52:58.223Z,4.10
2019-03-21T17:55:24.274Z,3.80
2019-03-21T17:57:50.283Z,3.50
2019-03-21T18:00:21.106Z,3.13
2019-03-21T18:02:47.326Z,2.90
2019-03-21T18:05:13.353Z,2.60
2019-03-21T18:07:39.704Z,2.30
2019-03-21T18:10:15.589Z,2.93
2019-03-21T18:12:41.610Z,2.17
2019-03-21T18:15:08.010Z,1.80
2019-03-21T18:17:34.338Z,2.10
2019-03-21T18:20:00.510Z,1.47
2019-03-21T18:22:26.704Z,1.73
2019-03-21T18:24:53.984Z,2.20
2019-03-21T18:27:20.342Z,2.47
2019-03-21T18:29:46.395Z,2.10
2019-03-21T18:32:12.478Z,2.70
2019-03-21T18:34:38.515Z,2.17
2019-03-21T18:37:04.522Z,2.40
2019-03-21T18:39:30.547Z,2.27
2019-03-21T18:41:56.831Z,2.67
2019-03-21T18:44:22.862Z,2.63
2019-03-21T18:46:48.878Z,3.47
2019-03-21T18:49:14.931Z,10.30
2019-03-21T18:51:40.943Z,12.40
2019-03-21T18:54:07.359Z,8.30
2019-03-21T18:56:33.707Z,6.20
2019-03-21T18:58:59.724Z,4.00
2019-03-21T19:01:25.735Z,3.37
2019-03-21T19:03:51.790Z,2.93
2019-03-21T19:06:18.100Z,2.30
2019-03-21T19:08:44.123Z,2.10
2019-03-21T19:11:10.454Z,1.93
2019-03-21T19:13:36.492Z,2.20
2019-03-21T19:16:02.520Z,7.80
2019-03-21T19:18:28.938Z,23.37
2019-03-21T19:20:54.989Z,15.23
2019-03-21T19:23:21.294Z,9.53
2019-03-21T19:25:47.339Z,5.70
2019-03-21T19:28:13.459Z,3.07
2019-03-21T19:30:39.471Z,2.53
2019-03-21T19:33:05.511Z,2.80
2019-03-21T19:35:31.854Z,2.83
2019-03-21T19:37:57.950Z,4.60
2019-03-21T19:40:23.966Z,7.53
2019-03-21T19:42:50.083Z,5.10
2019-03-21T19:45:17.447Z,5.00
2019-03-21T19:47:43.464Z,5.47
2019-03-21T19:50:13.014Z,4.53
2019-03-21T19:52:39.022Z,3.47
2019-03-21T19:55:05.361Z,3.33
2019-03-21T19:57:31.485Z,3.03
2019-03-21T19:59:57.498Z,3.50
2019-03-21T20:02:23.506Z,3.70
2019-03-21T20:04:53.636Z,37.27
2019-03-21T20:07:19.654Z,60.07
2019-03-21T20:09:45.723Z,20.53
2019-03-21T20:12:12.079Z,7.40
2019-03-21T20:14:38.419Z,4.03
2019-03-21T20:17:04.418Z,3.70
2019-03-21T20:19:30.779Z,3.50
2019-03-21T20:21:56.794Z,5.93
2019-03-21T20:24:22.830Z,9.37
2019-03-21T20:26:48.853Z,13.50
2019-03-21T20:29:14.983Z,18.37
2019-03-21T20:31:41.016Z,17.63
2019-03-21T20:34:07.039Z,19.10
2019-03-21T20:36:33.043Z,10.70
2019-03-21T20:38:59.302Z,7.90
2019-03-21T20:41:25.351Z,7.07
2019-03-21T20:43:51.395Z,6.23
2019-03-21T20:46:17.441Z,3.60
2019-03-21T20:48:43.260Z,4.03
2019-03-21T20:51:09.509Z,4.73
2019-03-21T20:53:35.827Z,4.70
2019-03-21T20:56:01.836Z,4.53
2019-03-21T20:58:27.844Z,2.97
2019-03-21T21:00:53.980Z,2.33
2019-03-21T21:03:19.982Z,4.03
2019-03-21T21:05:46.007Z,3.77
2019-03-21T21:08:12.006Z,3.20
2019-03-21T21:10:38.031Z,4.33
2019-03-21T21:13:04.038Z,4.00
2019-03-21T21:15:30.069Z,2.83
2019-03-21T21:17:56.378Z,2.67
2019-03-21T21:20:22.399Z,2.70
2019-03-21T21:22:48.734Z,3.10
2019-03-21T21:25:15.263Z,2.80
2019-03-21T21:27:49.325Z,3.87
2019-03-21T21:30:14.944Z,3.43
2019-03-21T21:32:41.227Z,2.97
2019-03-21T21:35:07.850Z,4.43
2019-03-21T21:37:34.826Z,12.10
2019-03-21T21:40:01.146Z,10.40
2019-03-21T21:42:27.334Z,11.83
2019-03-21T21:44:53.354Z,10.43
2019-03-21T21:47:19.364Z,10.30
2019-03-21T21:49:45.382Z,8.70
2019-03-21T21:52:11.406Z,7.17
2019-03-21T21:54:37.430Z,7.03
2019-03-21T21:57:03.446Z,5.50
2019-03-21T21:59:29.490Z,6.37
2019-03-21T22:01:55.507Z,5.47
2019-03-21T22:04:21.796Z,7.07
2019-03-21T22:06:47.807Z,7.00
2019-03-21T22:09:13.820Z,5.53
2019-03-21T22:11:39.839Z,3.47
2019-03-21T22:14:05.847Z,3.37
2019-03-21T22:16:31.874Z,2.27
2019-03-21T22:18:57.899Z,1.60
2019-03-21T22:21:23.926Z,1.83
2019-03-21T22:23:49.942Z,1.57
2019-03-21T22:26:15.969Z,1.70
2019-03-21T22:28:42.242Z,1.83
2019-03-21T22:31:08.266Z,1.27
2019-03-21T22:33:34.297Z,1.97
2019-03-21T22:36:00.303Z,2.07
2019-03-21T22:38:26.327Z,2.50
2019-03-21T22:40:52.379Z,2.87
2019-03-21T22:43:18.473Z,2.77
2019-03-21T22:45:44.470Z,2.90
2019-03-21T22:48:14.124Z,2.13
2019-03-21T22:50:40.142Z,1.93
2019-03-21T22:53:06.202Z,1.60
2019-03-21T22:55:32.223Z,1.87
2019-03-21T22:57:58.244Z,1.70
2019-03-21T23:00:28.951Z,1.50
2019-03-21T23:02:55.589Z,1.80
2019-03-21T23:05:21.594Z,2.27
2019-03-21T23:07:47.612Z,2.37
2019-03-21T23:10:14.024Z,1.70
2019-03-21T23:12:41.024Z,2.30
2019-03-21T23:15:09.244Z,1.80
2019-03-21T23:17:35.419Z,2.00
2019-03-21T23:20:04.595Z,1.87
2019-03-21T23:22:30.859Z,1.87
2019-03-21T23:24:56.882Z,1.53
2019-03-21T23:27:22.998Z,1.50
2019-03-21T23:29:49.056Z,1.70
2019-03-21T23:32:15.080Z,1.30
2019-03-21T23:34:41.091Z,1.70
2019-03-21T23:37:07.160Z,1.63
2019-03-21T23:39:33.395Z,1.67
2019-03-21T23:41:59.867Z,2.07
2019-03-21T23:44:25.887Z,1.90
2019-03-21T23:46:51.902Z,1.60
2019-03-21T23:49:17.927Z,2.03
2019-03-21T23:51:43.960Z,1.77
2019-03-21T23:54:09.976Z,1.60
2019-03-21T23:56:35.983Z,2.10
2019-03-21T23:59:02.011Z,1.63
